createdAt,value
2019-03-17T00:00:12.430Z,10.93
2019-03-17T00:01:19.599Z,10.90
2019-03-17T00:02:12.404Z,11.00
2019-03-17T00:03:12.392Z,10.99
2019-03-17T00:04:12.379Z,10.93
2019-03-17T00:05:12.369Z,10.96
2019-03-17T00:06:12.364Z,10.86
2019-03-17T00:07:12.498Z,10.89
2019-03-17T00:08:12.340Z,10.89
2019-03-17T00:09:12.327Z,10.87
2019-03-17T00:10:12.319Z,10.92
2019-03-17T00:11:12.299Z,10.93
2019-03-17T00:12:12.328Z,10.99
2019-03-17T00:13:12.292Z,10.89
2019-03-17T00:14:12.269Z,10.93
2019-03-17T00:15:12.257Z,10.90
2019-03-17T00:16:12.266Z,10.89
2019-03-17T00:17:12.252Z,10.93
2019-03-17T00:18:12.247Z,10.92
2019-03-17T00:19:12.234Z,10.92
2019-03-17T00:20:12.207Z,10.92
2019-03-17T00:21:12.220Z,10.89
2019-03-17T00:22:12.186Z,10.96
2019-03-17T00:23:12.174Z,10.96
2019-03-17T00:24:12.180Z,10.86
2019-03-17T00:25:12.167Z,10.89
2019-03-17T00:26:12.146Z,10.87
2019-03-17T00:27:12.128Z,10.94
2019-03-17T00:28:12.126Z,10.87
2019-03-17T00:29:12.104Z,10.92
2019-03-17T00:30:12.118Z,10.94
2019-03-17T00:31:23.337Z,10.89
2019-03-17T00:32:13.093Z,10.86
2019-03-17T00:33:12.058Z,10.94
2019-03-17T00:34:12.048Z,10.87
2019-03-17T00:35:12.082Z,10.84
2019-03-17T00:36:12.030Z,10.78
2019-03-17T00:37:12.037Z,10.86
2019-03-17T00:38:12.007Z,10.81
2019-03-17T00:39:12.009Z,10.87
2019-03-17T00:40:11.978Z,10.90
2019-03-17T00:41:11.972Z,10.76
2019-03-17T00:42:11.977Z,10.86
2019-03-17T00:43:11.973Z,10.87
2019-03-17T00:44:11.934Z,10.89
2019-03-17T00:45:12.082Z,10.90
2019-03-17T00:46:11.914Z,10.96
2019-03-17T00:47:11.978Z,10.87
2019-03-17T00:48:11.896Z,10.87
2019-03-17T00:49:11.910Z,10.87
2019-03-17T00:50:11.869Z,10.93
2019-03-17T00:51:11.860Z,10.92
2019-03-17T00:52:11.845Z,10.89
2019-03-17T00:53:11.834Z,10.75
2019-03-17T00:54:11.851Z,10.75
2019-03-17T00:55:11.813Z,10.84
2019-03-17T00:56:11.815Z,10.72
2019-03-17T00:57:11.790Z,10.75
2019-03-17T00:58:11.785Z,10.72
2019-03-17T00:59:11.790Z,10.74
2019-03-17T01:00:11.917Z,10.71
2019-03-17T01:01:11.757Z,10.74
2019-03-17T01:02:11.748Z,10.79
2019-03-17T01:03:11.850Z,10.76
2019-03-17T01:04:11.735Z,10.69
2019-03-17T01:05:11.725Z,10.72
2019-03-17T01:06:11.723Z,10.69
2019-03-17T01:07:11.684Z,10.74
2019-03-17T01:08:11.665Z,10.84
2019-03-17T01:09:11.653Z,10.74
2019-03-17T01:10:11.674Z,10.76
2019-03-17T01:11:11.635Z,10.72
2019-03-17T01:12:11.622Z,10.68
2019-03-17T01:13:11.626Z,10.72
2019-03-17T01:14:11.600Z,10.67
2019-03-17T01:15:11.594Z,10.69
2019-03-17T01:16:11.601Z,10.68
2019-03-17T01:17:11.576Z,10.67
2019-03-17T01:18:11.554Z,10.63
2019-03-17T01:19:11.549Z,10.64
2019-03-17T01:20:11.533Z,10.67
2019-03-17T01:21:11.523Z,10.67
2019-03-17T01:22:11.533Z,10.61
2019-03-17T01:23:11.497Z,10.64
2019-03-17T01:24:11.550Z,10.64
2019-03-17T01:25:11.476Z,10.67
2019-03-17T01:26:11.468Z,10.67
2019-03-17T01:27:11.542Z,10.67
2019-03-17T01:28:11.440Z,10.63
2019-03-17T01:29:11.449Z,10.63
2019-03-17T01:30:11.444Z,10.57
2019-03-17T01:31:11.412Z,10.59
2019-03-17T01:32:11.394Z,10.53
2019-03-17T01:33:11.384Z,10.57
2019-03-17T01:34:11.405Z,10.53
2019-03-17T01:35:11.363Z,10.48
2019-03-17T01:36:11.355Z,10.56
2019-03-17T01:37:11.351Z,10.48
2019-03-17T01:38:11.335Z,10.49
2019-03-17T01:39:11.330Z,10.49
2019-03-17T01:40:11.329Z,10.49
2019-03-17T01:41:11.295Z,10.49
2019-03-17T01:42:11.298Z,10.46
2019-03-17T01:43:11.300Z,10.41
2019-03-17T01:44:11.262Z,10.48
2019-03-17T01:45:11.252Z,10.46
2019-03-17T01:46:11.289Z,10.51
2019-03-17T01:47:11.228Z,10.44
2019-03-17T01:48:11.245Z,10.51
2019-03-17T01:49:11.225Z,10.53
2019-03-17T01:50:11.202Z,10.57
2019-03-17T01:51:11.192Z,10.42
2019-03-17T01:52:11.193Z,10.56
2019-03-17T01:53:11.162Z,10.46
2019-03-17T01:54:11.145Z,10.49
2019-03-17T01:55:11.158Z,10.48
2019-03-17T01:56:11.132Z,10.48
2019-03-17T01:57:11.138Z,10.44
2019-03-17T01:58:11.131Z,10.49
2019-03-17T01:59:11.138Z,10.46
2019-03-17T02:00:11.088Z,10.49
2019-03-17T02:01:12.026Z,10.44
2019-03-17T02:02:11.058Z,10.48
2019-03-17T02:03:11.045Z,10.48
2019-03-17T02:04:11.047Z,10.40
2019-03-17T02:05:21.410Z,10.40
2019-03-17T02:06:12.013Z,10.48
2019-03-17T02:07:11.005Z,10.42
2019-03-17T02:08:10.993Z,10.48
2019-03-17T02:09:10.978Z,10.44
2019-03-17T02:10:10.975Z,10.41
2019-03-17T02:11:10.977Z,10.40
2019-03-17T02:12:10.943Z,10.46
2019-03-17T02:13:10.933Z,10.46
2019-03-17T02:14:10.947Z,10.48
2019-03-17T02:15:10.939Z,10.53
2019-03-17T02:16:10.898Z,10.53
2019-03-17T02:17:10.890Z,10.49
2019-03-17T02:18:10.876Z,10.56
2019-03-17T02:19:10.867Z,10.49
2019-03-17T02:20:10.877Z,10.49
2019-03-17T02:21:10.841Z,10.42
2019-03-17T02:22:10.855Z,10.48
2019-03-17T02:23:10.846Z,10.46
2019-03-17T02:24:10.817Z,10.49
2019-03-17T02:25:10.797Z,10.46
2019-03-17T02:26:10.789Z,10.53
2019-03-17T02:27:10.795Z,10.49
2019-03-17T02:28:10.765Z,10.56
2019-03-17T02:29:10.766Z,10.46
2019-03-17T02:30:10.805Z,10.49
2019-03-17T02:31:10.731Z,10.46
2019-03-17T02:32:10.721Z,10.48
2019-03-17T02:33:10.729Z,10.51
2019-03-17T02:34:12.071Z,10.49
2019-03-17T02:35:10.701Z,10.49
2019-03-17T02:36:10.678Z,10.54
2019-03-17T02:37:10.673Z,10.49
2019-03-17T02:38:10.685Z,10.53
2019-03-17T02:39:10.640Z,10.48
2019-03-17T02:40:10.676Z,10.54
2019-03-17T02:41:10.619Z,10.56
2019-03-17T02:42:10.676Z,10.48
2019-03-17T02:43:10.595Z,10.46
2019-03-17T02:44:10.606Z,10.51
2019-03-17T02:45:10.607Z,10.49
2019-03-17T02:46:10.582Z,10.51
2019-03-17T02:47:10.577Z,10.48
2019-03-17T02:48:10.544Z,10.44
2019-03-17T02:49:10.531Z,10.57
2019-03-17T02:50:10.570Z,10.44
2019-03-17T02:51:10.506Z,10.57
2019-03-17T02:52:10.516Z,10.54
2019-03-17T02:53:10.582Z,10.53
2019-03-17T02:54:10.466Z,10.53
2019-03-17T02:55:10.513Z,10.57
2019-03-17T02:56:10.451Z,10.46
2019-03-17T02:57:10.438Z,10.40
2019-03-17T02:58:10.423Z,10.53
2019-03-17T02:59:10.428Z,10.51
2019-03-17T03:00:10.450Z,10.49
2019-03-17T03:01:10.394Z,10.53
2019-03-17T03:02:10.386Z,10.57
2019-03-17T03:03:10.378Z,10.51
2019-03-17T03:04:10.362Z,10.48
2019-03-17T03:05:10.362Z,10.49
2019-03-17T03:06:10.460Z,10.40
2019-03-17T03:07:10.342Z,10.40
2019-03-17T03:08:10.317Z,10.48
2019-03-17T03:09:10.331Z,10.38
2019-03-17T03:10:10.292Z,10.38
2019-03-17T03:11:10.294Z,10.35
2019-03-17T03:12:10.292Z,10.41
2019-03-17T03:13:10.270Z,10.38
2019-03-17T03:14:10.281Z,10.44
2019-03-17T03:15:10.235Z,10.42
2019-03-17T03:16:10.224Z,10.38
2019-03-17T03:17:10.212Z,10.38
2019-03-17T03:18:10.225Z,10.37
2019-03-17T03:19:10.232Z,10.30
2019-03-17T03:20:10.179Z,10.38
2019-03-17T03:21:10.173Z,10.38
2019-03-17T03:22:10.215Z,10.38
2019-03-17T03:23:10.154Z,10.37
2019-03-17T03:24:10.162Z,10.40
2019-03-17T03:25:10.134Z,10.40
2019-03-17T03:26:10.111Z,10.31
2019-03-17T03:27:10.104Z,10.42
2019-03-17T03:28:10.094Z,10.26
2019-03-17T03:29:10.087Z,10.38
2019-03-17T03:30:10.130Z,10.38
2019-03-17T03:31:10.064Z,10.40
2019-03-17T03:32:10.044Z,10.22
2019-03-17T03:33:10.041Z,10.25
2019-03-17T03:34:10.023Z,10.28
2019-03-17T03:35:10.127Z,10.15
2019-03-17T03:36:11.845Z,10.16
2019-03-17T03:37:09.990Z,10.15
2019-03-17T03:38:09.981Z,10.01
2019-03-17T03:39:09.961Z,10.01
2019-03-17T03:40:09.985Z,10.02
2019-03-17T03:41:09.937Z,9.98
2019-03-17T03:42:09.958Z,9.94
2019-03-17T03:43:09.918Z,9.92
2019-03-17T03:44:09.909Z,9.89
2019-03-17T03:45:09.929Z,9.82
2019-03-17T03:46:10.035Z,9.86
2019-03-17T03:47:09.872Z,9.86
2019-03-17T03:48:09.861Z,9.80
2019-03-17T03:49:09.863Z,9.82
2019-03-17T03:50:09.844Z,9.86
2019-03-17T03:51:09.830Z,9.87
2019-03-17T03:52:09.841Z,9.86
2019-03-17T03:53:09.817Z,9.87
2019-03-17T03:54:09.800Z,9.86
2019-03-17T03:55:09.784Z,9.95
2019-03-17T03:56:09.786Z,9.91
2019-03-17T03:57:09.768Z,9.92
2019-03-17T03:58:09.791Z,9.91
2019-03-17T03:59:09.740Z,9.89
2019-03-17T04:00:09.725Z,9.97
2019-03-17T04:01:09.723Z,9.99
2019-03-17T04:02:09.906Z,9.86
2019-03-17T04:03:09.704Z,10.02
2019-03-17T04:04:09.695Z,9.99
2019-03-17T04:05:09.779Z,9.87
2019-03-17T04:06:25.200Z,9.80
2019-03-17T04:07:10.678Z,9.80
2019-03-17T04:08:09.647Z,9.87
2019-03-17T04:09:09.636Z,9.83
2019-03-17T04:10:09.629Z,9.80
2019-03-17T04:11:09.613Z,9.66
2019-03-17T04:12:09.592Z,9.74
2019-03-17T04:13:09.606Z,9.64
2019-03-17T04:14:09.578Z,9.77
2019-03-17T04:15:09.565Z,9.61
2019-03-17T04:16:09.542Z,9.62
2019-03-17T04:17:09.532Z,9.73
2019-03-17T04:18:09.551Z,9.77
2019-03-17T04:19:09.526Z,9.73
2019-03-17T04:20:09.508Z,9.69
2019-03-17T04:21:09.488Z,9.73
2019-03-17T04:22:09.509Z,9.74
2019-03-17T04:23:09.489Z,9.74
2019-03-17T04:24:09.489Z,9.74
2019-03-17T04:25:09.449Z,9.72
2019-03-17T04:26:09.436Z,9.73
2019-03-17T04:27:09.418Z,9.79
2019-03-17T04:28:09.447Z,9.69
2019-03-17T04:29:09.395Z,9.76
2019-03-17T04:30:09.395Z,9.76
2019-03-17T04:31:09.380Z,9.76
2019-03-17T04:32:09.464Z,9.72
2019-03-17T04:33:09.361Z,9.66
2019-03-17T04:34:09.364Z,9.69
2019-03-17T04:35:09.338Z,9.64
2019-03-17T04:36:09.331Z,9.66
2019-03-17T04:37:09.310Z,9.76
2019-03-17T04:38:09.297Z,9.66
2019-03-17T04:39:09.292Z,9.72
2019-03-17T04:40:09.294Z,9.72
2019-03-17T04:41:09.263Z,9.61
2019-03-17T04:42:09.256Z,9.59
2019-03-17T04:43:09.239Z,9.65
2019-03-17T04:44:20.212Z,9.59
2019-03-17T04:45:10.254Z,9.51
2019-03-17T04:46:09.221Z,9.54
2019-03-17T04:47:09.236Z,9.47
2019-03-17T04:48:09.366Z,9.40
2019-03-17T04:49:09.206Z,9.41
2019-03-17T04:50:09.161Z,9.39
2019-03-17T04:51:09.158Z,9.37
2019-03-17T04:52:09.138Z,9.28
2019-03-17T04:53:09.138Z,9.28
2019-03-17T04:54:09.131Z,9.26
2019-03-17T04:55:09.133Z,9.23
2019-03-17T04:56:09.102Z,9.23
2019-03-17T04:57:09.111Z,9.18
2019-03-17T04:58:09.074Z,9.10
2019-03-17T04:59:09.063Z,9.16
2019-03-17T05:00:09.054Z,9.04
2019-03-17T05:01:09.049Z,8.97
2019-03-17T05:02:09.032Z,8.92
2019-03-17T05:03:09.039Z,8.95
2019-03-17T05:04:09.012Z,8.88
2019-03-17T05:05:09.023Z,8.82
2019-03-17T05:06:08.984Z,8.82
2019-03-17T05:07:08.978Z,8.84
2019-03-17T05:08:08.967Z,8.89
2019-03-17T05:09:08.953Z,8.88
2019-03-17T05:10:08.969Z,8.79
2019-03-17T05:11:08.930Z,8.82
2019-03-17T05:12:08.982Z,8.89
2019-03-17T05:13:08.907Z,8.82
2019-03-17T05:14:08.893Z,8.79
2019-03-17T05:15:08.909Z,8.69
2019-03-17T05:16:08.876Z,8.79
2019-03-17T05:17:09.566Z,8.74
2019-03-17T05:18:08.850Z,8.67
2019-03-17T05:19:08.838Z,8.71
2019-03-17T05:20:08.846Z,8.63
2019-03-17T05:21:08.822Z,8.71
2019-03-17T05:22:08.806Z,8.71
2019-03-17T05:23:08.807Z,8.71
2019-03-17T05:24:08.797Z,8.71
2019-03-17T05:25:08.793Z,8.69
2019-03-17T05:26:08.792Z,8.71
2019-03-17T05:27:08.759Z,8.71
2019-03-17T05:28:08.777Z,8.71
2019-03-17T05:29:08.732Z,8.66
2019-03-17T05:30:08.719Z,8.69
2019-03-17T05:31:08.754Z,8.67
2019-03-17T05:32:08.702Z,8.69
2019-03-17T05:33:08.711Z,8.69
2019-03-17T05:34:08.673Z,8.73
2019-03-17T05:35:08.677Z,8.73
2019-03-17T05:36:08.651Z,8.67
2019-03-17T05:37:08.659Z,8.66
2019-03-17T05:38:08.631Z,8.67
2019-03-17T05:39:08.640Z,8.70
2019-03-17T05:40:08.618Z,8.66
2019-03-17T05:41:08.595Z,8.64
2019-03-17T05:42:08.607Z,8.60
2019-03-17T05:43:08.577Z,8.73
2019-03-17T05:44:08.704Z,8.67
2019-03-17T05:45:08.555Z,8.66
2019-03-17T05:46:08.561Z,8.58
2019-03-17T05:47:08.526Z,8.70
2019-03-17T05:48:08.546Z,8.58
2019-03-17T05:49:08.526Z,8.53
2019-03-17T05:50:08.498Z,8.53
2019-03-17T05:51:08.492Z,8.60
2019-03-17T05:52:08.478Z,8.55
2019-03-17T05:53:08.484Z,8.48
2019-03-17T05:54:08.453Z,8.52
2019-03-17T05:55:08.487Z,8.44
2019-03-17T05:56:08.436Z,8.42
2019-03-17T05:57:08.419Z,8.41
2019-03-17T05:58:08.414Z,8.31
2019-03-17T05:59:08.419Z,8.31
2019-03-17T06:00:08.388Z,8.27
2019-03-17T06:01:08.370Z,8.30
2019-03-17T06:02:08.373Z,8.26
2019-03-17T06:03:08.353Z,8.31
2019-03-17T06:04:08.356Z,8.27
2019-03-17T06:05:08.355Z,8.26
2019-03-17T06:06:08.345Z,8.27
2019-03-17T06:07:18.032Z,8.30
2019-03-17T06:08:09.299Z,8.24
2019-03-17T06:09:08.286Z,8.28
2019-03-17T06:10:08.289Z,8.27
2019-03-17T06:11:08.360Z,8.30
2019-03-17T06:12:08.264Z,8.28
2019-03-17T06:13:08.236Z,8.28
2019-03-17T06:14:08.295Z,8.27
2019-03-17T06:15:08.217Z,8.20
2019-03-17T06:16:08.226Z,8.19
2019-03-17T06:17:08.224Z,8.26
2019-03-17T06:18:08.270Z,8.26
2019-03-17T06:19:08.169Z,8.20
2019-03-17T06:20:08.169Z,8.18
2019-03-17T06:21:08.182Z,8.26
2019-03-17T06:22:08.141Z,8.16
2019-03-17T06:23:08.129Z,8.20
2019-03-17T06:24:08.247Z,8.26
2019-03-17T06:25:08.158Z,8.15
2019-03-17T06:26:08.137Z,8.23
2019-03-17T06:27:08.122Z,8.16
2019-03-17T06:28:08.073Z,8.15
2019-03-17T06:29:08.063Z,8.09
2019-03-17T06:30:08.051Z,8.09
2019-03-17T06:31:08.056Z,8.19
2019-03-17T06:32:08.032Z,8.16
2019-03-17T06:33:08.029Z,8.16
2019-03-17T06:34:08.023Z,8.13
2019-03-17T06:35:08.003Z,8.10
2019-03-17T06:36:08.023Z,8.09
2019-03-17T06:37:07.972Z,8.13
2019-03-17T06:38:07.963Z,8.20
2019-03-17T06:39:07.951Z,8.18
2019-03-17T06:40:08.055Z,8.20
2019-03-17T06:41:07.951Z,8.09
2019-03-17T06:42:07.917Z,8.09
2019-03-17T06:43:07.906Z,8.08
2019-03-17T06:44:07.893Z,8.15
2019-03-17T06:45:07.894Z,8.10
2019-03-17T06:46:07.870Z,8.06
2019-03-17T06:47:07.924Z,8.12
2019-03-17T06:48:07.957Z,8.15
2019-03-17T06:49:07.851Z,8.12
2019-03-17T06:50:07.828Z,8.06
2019-03-17T06:51:07.821Z,8.09
2019-03-17T06:52:07.833Z,8.05
2019-03-17T06:53:07.795Z,8.06
2019-03-17T06:54:07.787Z,8.05
2019-03-17T06:55:07.774Z,8.05
2019-03-17T06:56:07.757Z,8.05
2019-03-17T06:57:07.776Z,8.03
2019-03-17T06:58:07.739Z,8.06
2019-03-17T06:59:07.728Z,8.06
2019-03-17T07:00:07.719Z,8.06
2019-03-17T07:01:07.744Z,8.01
2019-03-17T07:02:07.732Z,8.05
2019-03-17T07:03:07.687Z,8.05
2019-03-17T07:04:07.674Z,8.06
2019-03-17T07:05:07.671Z,8.05
2019-03-17T07:06:07.655Z,8.06
2019-03-17T07:07:07.731Z,8.06
2019-03-17T07:08:07.672Z,8.03
2019-03-17T07:09:07.640Z,8.05
2019-03-17T07:10:07.635Z,8.06
2019-03-17T07:11:07.630Z,8.03
2019-03-17T07:12:07.598Z,8.03
2019-03-17T07:13:07.603Z,8.06
2019-03-17T07:14:07.570Z,8.05
2019-03-17T07:15:07.582Z,8.13
2019-03-17T07:16:07.542Z,8.05
2019-03-17T07:17:07.529Z,8.06
2019-03-17T07:18:07.519Z,8.09
2019-03-17T07:19:07.563Z,8.10
2019-03-17T07:20:07.502Z,8.05
2019-03-17T07:21:07.486Z,8.06
2019-03-17T07:22:07.474Z,8.06
2019-03-17T07:23:07.493Z,8.05
2019-03-17T07:24:07.478Z,8.08
2019-03-17T07:25:07.446Z,8.05
2019-03-17T07:26:07.434Z,8.03
2019-03-17T07:27:07.419Z,8.05
2019-03-17T07:28:07.416Z,8.01
2019-03-17T07:29:07.404Z,8.05
2019-03-17T07:30:07.670Z,8.01
2019-03-17T07:31:07.527Z,8.03
2019-03-17T07:32:07.370Z,8.09
2019-03-17T07:33:07.377Z,7.97
2019-03-17T07:34:07.376Z,8.03
2019-03-17T07:35:07.363Z,7.77
2019-03-17T07:36:07.319Z,7.54
2019-03-17T07:37:07.319Z,7.31
2019-03-17T07:38:07.301Z,7.15
2019-03-17T07:39:12.172Z,6.92
2019-03-17T07:40:08.308Z,6.75
2019-03-17T07:41:07.272Z,6.67
2019-03-17T07:42:07.252Z,6.66
2019-03-17T07:43:07.251Z,6.57
2019-03-17T07:44:07.239Z,6.41
2019-03-17T07:45:07.224Z,6.49
2019-03-17T07:46:07.249Z,6.41
2019-03-17T07:47:07.204Z,6.33
2019-03-17T07:48:07.192Z,6.26
2019-03-17T07:49:07.182Z,6.31
2019-03-17T07:50:07.186Z,6.26
2019-03-17T07:51:07.158Z,6.35
2019-03-17T07:52:07.167Z,6.28
2019-03-17T07:53:07.133Z,6.22
2019-03-17T07:54:07.127Z,6.30
2019-03-17T07:55:07.116Z,6.33
2019-03-17T07:56:07.134Z,6.33
2019-03-17T07:57:07.117Z,6.33
2019-03-17T07:58:07.078Z,6.31
2019-03-17T07:59:07.128Z,6.24
2019-03-17T08:00:07.099Z,6.30
2019-03-17T08:01:07.049Z,6.30
2019-03-17T08:02:07.035Z,6.35
2019-03-17T08:03:07.023Z,6.26
2019-03-17T08:04:07.007Z,6.33
2019-03-17T08:05:07.023Z,6.33
2019-03-17T08:06:07.105Z,6.38
2019-03-17T08:07:06.986Z,6.36
2019-03-17T08:08:09.747Z,6.33
2019-03-17T08:09:06.965Z,6.39
2019-03-17T08:10:06.951Z,6.36
2019-03-17T08:11:06.945Z,6.42
2019-03-17T08:12:06.920Z,6.38
2019-03-17T08:13:06.931Z,6.41
2019-03-17T08:14:07.016Z,6.49
2019-03-17T08:15:06.891Z,6.38
2019-03-17T08:16:06.889Z,6.38
2019-03-17T08:17:06.874Z,6.41
2019-03-17T08:18:06.871Z,6.48
2019-03-17T08:19:06.880Z,6.42
2019-03-17T08:20:06.843Z,6.45
2019-03-17T08:21:06.827Z,6.49
2019-03-17T08:22:06.814Z,6.54
2019-03-17T08:23:06.814Z,6.57
2019-03-17T08:24:06.790Z,6.63
2019-03-17T08:25:06.813Z,6.59
2019-03-17T08:26:06.771Z,6.63
2019-03-17T08:27:06.767Z,6.67
2019-03-17T08:28:06.782Z,6.63
2019-03-17T08:29:06.769Z,6.67
2019-03-17T08:30:06.736Z,6.66
2019-03-17T08:31:06.741Z,6.64
2019-03-17T08:32:06.699Z,6.78
2019-03-17T08:33:06.695Z,6.70
2019-03-17T08:34:06.709Z,6.81
2019-03-17T08:35:06.678Z,6.70
2019-03-17T08:36:06.665Z,6.77
2019-03-17T08:37:06.645Z,6.78
2019-03-17T08:38:06.635Z,6.77
2019-03-17T08:39:06.638Z,6.78
2019-03-17T08:40:06.619Z,6.78
2019-03-17T08:41:06.602Z,6.81
2019-03-17T08:42:06.597Z,6.87
2019-03-17T08:43:06.631Z,6.85
2019-03-17T08:44:06.568Z,6.89
2019-03-17T08:45:06.550Z,6.92
2019-03-17T08:46:06.636Z,6.82
2019-03-17T08:47:06.529Z,6.79
2019-03-17T08:48:06.520Z,6.81
2019-03-17T08:49:06.550Z,6.87
2019-03-17T08:50:06.542Z,6.89
2019-03-17T08:51:06.491Z,6.89
2019-03-17T08:52:06.481Z,6.88
2019-03-17T08:53:06.464Z,7.06
2019-03-17T08:54:06.447Z,6.92
2019-03-17T08:55:06.466Z,6.93
2019-03-17T08:56:06.436Z,6.89
2019-03-17T08:57:06.417Z,6.95
2019-03-17T08:58:06.410Z,6.97
2019-03-17T08:59:06.400Z,6.89
2019-03-17T09:00:06.396Z,7.00
2019-03-17T09:01:06.409Z,7.07
2019-03-17T09:02:06.367Z,7.05
2019-03-17T09:03:06.356Z,7.17
2019-03-17T09:04:06.355Z,7.14
2019-03-17T09:05:06.362Z,7.21
2019-03-17T09:06:06.317Z,7.23
2019-03-17T09:07:06.353Z,7.20
2019-03-17T09:08:06.294Z,7.17
2019-03-17T09:09:06.294Z,7.32
2019-03-17T09:10:06.335Z,7.35
2019-03-17T09:11:06.282Z,7.38
2019-03-17T09:12:06.293Z,7.42
2019-03-17T09:13:06.236Z,7.42
2019-03-17T09:14:06.235Z,7.54
2019-03-17T09:15:06.222Z,7.47
2019-03-17T09:16:06.211Z,7.53
2019-03-17T09:17:14.196Z,7.57
2019-03-17T09:18:07.225Z,7.60
2019-03-17T09:19:06.172Z,7.73
2019-03-17T09:20:06.173Z,7.66
2019-03-17T09:21:06.171Z,7.79
2019-03-17T09:22:06.141Z,7.77
2019-03-17T09:23:06.123Z,7.85
2019-03-17T09:24:16.660Z,7.83
2019-03-17T09:25:07.102Z,7.94
2019-03-17T09:26:06.176Z,7.93
2019-03-17T09:27:06.079Z,7.95
2019-03-17T09:28:06.067Z,8.03
2019-03-17T09:29:06.169Z,7.94
2019-03-17T09:30:06.082Z,7.94
2019-03-17T09:31:07.538Z,7.94
2019-03-17T09:32:06.023Z,7.94
2019-03-17T09:33:06.020Z,7.94
2019-03-17T09:34:06.038Z,7.91
2019-03-17T09:35:06.018Z,7.93
2019-03-17T09:36:05.995Z,7.93
2019-03-17T09:37:06.010Z,7.94
2019-03-17T09:38:05.999Z,7.95
2019-03-17T09:39:05.953Z,7.95
2019-03-17T09:40:05.935Z,8.03
2019-03-17T09:41:05.937Z,8.12
2019-03-17T09:42:05.916Z,8.23
2019-03-17T09:43:05.938Z,8.16
2019-03-17T09:44:05.928Z,8.24
2019-03-17T09:45:05.885Z,8.24
2019-03-17T09:46:05.874Z,8.34
2019-03-17T09:47:05.855Z,8.37
2019-03-17T09:48:05.845Z,8.48
2019-03-17T09:49:05.867Z,8.44
2019-03-17T09:50:05.826Z,8.48
2019-03-17T09:51:05.829Z,8.45
2019-03-17T09:52:05.801Z,8.48
2019-03-17T09:53:05.803Z,8.53
2019-03-17T09:54:05.789Z,8.48
2019-03-17T09:55:05.798Z,8.56
2019-03-17T09:56:05.758Z,8.53
2019-03-17T09:57:05.753Z,8.51
2019-03-17T09:58:05.748Z,8.55
2019-03-17T09:59:05.728Z,8.55
2019-03-17T10:00:05.721Z,8.53
2019-03-17T10:01:05.736Z,8.52
2019-03-17T10:02:05.717Z,8.58
2019-03-17T10:03:05.689Z,8.56
2019-03-17T10:04:05.667Z,8.52
2019-03-17T10:05:05.660Z,8.61
2019-03-17T10:06:05.830Z,8.53
2019-03-17T10:07:05.639Z,8.56
2019-03-17T10:08:05.629Z,8.58
2019-03-17T10:09:06.635Z,8.58
2019-03-17T10:10:05.605Z,8.56
2019-03-17T10:11:05.607Z,8.51
2019-03-17T10:12:05.636Z,8.55
2019-03-17T10:13:05.594Z,8.48
2019-03-17T10:14:05.560Z,8.37
2019-03-17T10:15:05.551Z,8.44
2019-03-17T10:16:05.538Z,8.45
2019-03-17T10:17:05.532Z,8.37
2019-03-17T10:18:05.542Z,8.45
2019-03-17T10:19:05.509Z,8.27
2019-03-17T10:20:05.531Z,8.13
2019-03-17T10:21:05.493Z,8.06
2019-03-17T10:22:05.473Z,8.01
2019-03-17T10:23:05.497Z,7.77
2019-03-17T10:24:05.444Z,7.57
2019-03-17T10:25:05.528Z,7.43
2019-03-17T10:26:05.428Z,6.95
2019-03-17T10:27:05.417Z,6.60
2019-03-17T10:28:05.414Z,6.27
2019-03-17T10:29:05.421Z,6.02
2019-03-17T10:30:05.385Z,5.91
2019-03-17T10:31:05.374Z,5.94
2019-03-17T10:32:05.384Z,5.84
2019-03-17T10:33:05.369Z,5.91
2019-03-17T10:34:05.344Z,5.87
2019-03-17T10:35:05.450Z,5.89
2019-03-17T10:36:05.318Z,6.01
2019-03-17T10:37:05.326Z,5.99
2019-03-17T10:38:05.295Z,6.02
2019-03-17T10:39:12.497Z,6.14
2019-03-17T10:40:06.272Z,6.27
2019-03-17T10:41:05.303Z,6.35
2019-03-17T10:42:05.248Z,6.31
2019-03-17T10:43:05.246Z,6.35
2019-03-17T10:44:05.222Z,6.36
2019-03-17T10:45:05.221Z,6.36
2019-03-17T10:46:05.203Z,6.36
2019-03-17T10:47:05.233Z,6.38
2019-03-17T10:48:05.187Z,6.41
2019-03-17T10:49:05.316Z,6.48
2019-03-17T10:50:05.170Z,6.51
2019-03-17T10:51:05.156Z,6.52
2019-03-17T10:52:05.137Z,6.59
2019-03-17T10:53:05.165Z,6.77
2019-03-17T10:54:05.116Z,6.85
2019-03-17T10:55:05.105Z,6.87
2019-03-17T10:56:05.104Z,7.06
2019-03-17T10:57:05.093Z,7.15
2019-03-17T10:58:05.082Z,7.21
2019-03-17T10:59:05.090Z,7.18
2019-03-17T11:00:05.057Z,7.45
2019-03-17T11:01:05.045Z,7.43
2019-03-17T11:02:05.064Z,7.54
2019-03-17T11:03:05.022Z,7.56
2019-03-17T11:04:05.003Z,7.63
2019-03-17T11:05:04.994Z,7.76
2019-03-17T11:06:04.983Z,7.79
2019-03-17T11:07:04.972Z,7.95
2019-03-17T11:08:05.025Z,7.97
2019-03-17T11:09:04.958Z,8.08
2019-03-17T11:10:04.935Z,8.24
2019-03-17T11:11:04.933Z,8.31
2019-03-17T11:12:04.920Z,8.38
2019-03-17T11:13:04.906Z,8.45
2019-03-17T11:14:04.930Z,8.49
2019-03-17T11:15:04.911Z,8.55
2019-03-17T11:16:04.876Z,8.69
2019-03-17T11:17:04.866Z,8.69
2019-03-17T11:18:04.856Z,8.67
2019-03-17T11:19:04.836Z,8.51
2019-03-17T11:20:04.825Z,8.51
2019-03-17T11:21:04.841Z,8.34
2019-03-17T11:22:04.806Z,8.10
2019-03-17T11:23:04.795Z,7.87
2019-03-17T11:24:04.778Z,7.70
2019-03-17T11:25:04.808Z,7.53
2019-03-17T11:26:04.760Z,7.36
2019-03-17T11:27:04.748Z,7.33
2019-03-17T11:28:04.735Z,7.29
2019-03-17T11:29:04.730Z,7.29
2019-03-17T11:30:04.713Z,7.18
2019-03-17T11:31:04.735Z,7.21
2019-03-17T11:32:06.585Z,7.31
2019-03-17T11:33:04.697Z,7.32
2019-03-17T11:34:04.678Z,7.51
2019-03-17T11:35:04.657Z,7.56
2019-03-17T11:36:04.653Z,7.60
2019-03-17T11:37:04.666Z,7.58
2019-03-17T11:38:04.623Z,7.60
2019-03-17T11:39:04.614Z,7.67
2019-03-17T11:40:04.600Z,7.76
2019-03-17T11:41:04.593Z,7.80
2019-03-17T11:42:04.583Z,7.79
2019-03-17T11:43:04.593Z,7.91
2019-03-17T11:44:04.566Z,7.98
2019-03-17T11:45:04.586Z,8.08
2019-03-17T11:46:04.541Z,8.19
2019-03-17T11:47:04.563Z,8.24
2019-03-17T11:48:04.515Z,8.26
2019-03-17T11:49:04.501Z,8.30
2019-03-17T11:50:04.495Z,8.44
2019-03-17T11:51:04.602Z,8.41
2019-03-17T11:52:04.481Z,8.48
2019-03-17T11:53:04.479Z,8.52
2019-03-17T11:54:04.453Z,8.63
2019-03-17T11:55:04.438Z,8.69
2019-03-17T11:56:04.452Z,8.66
2019-03-17T11:57:04.425Z,8.67
2019-03-17T11:58:04.405Z,8.70
2019-03-17T11:59:04.389Z,8.71
2019-03-17T12:00:04.384Z,8.71
2019-03-17T12:01:04.394Z,8.70
2019-03-17T12:02:04.373Z,8.76
2019-03-17T12:03:04.444Z,8.70
2019-03-17T12:04:04.339Z,8.84
2019-03-17T12:05:04.323Z,8.84
2019-03-17T12:06:04.364Z,8.88
2019-03-17T12:07:04.304Z,8.88
2019-03-17T12:08:04.291Z,8.85
2019-03-17T12:09:04.606Z,8.87
2019-03-17T12:10:04.312Z,9.00
2019-03-17T12:11:04.265Z,9.02
2019-03-17T12:12:04.315Z,9.00
2019-03-17T12:13:04.239Z,8.99
2019-03-17T12:14:04.234Z,8.99
2019-03-17T12:15:04.232Z,9.11
2019-03-17T12:16:04.209Z,9.03
2019-03-17T12:17:04.186Z,9.18
2019-03-17T12:18:04.200Z,9.19
2019-03-17T12:19:04.168Z,9.18
2019-03-17T12:20:04.166Z,9.23
2019-03-17T12:21:04.180Z,9.23
2019-03-17T12:22:09.169Z,9.31
2019-03-17T12:23:05.205Z,9.40
2019-03-17T12:24:04.111Z,9.32
2019-03-17T12:25:04.094Z,9.40
2019-03-17T12:26:04.126Z,9.34
2019-03-17T12:27:04.182Z,9.47
2019-03-17T12:28:04.074Z,9.44
2019-03-17T12:29:04.069Z,9.54
2019-03-17T12:30:04.050Z,9.59
2019-03-17T12:31:04.646Z,9.40
2019-03-17T12:32:04.026Z,9.41
2019-03-17T12:33:04.029Z,9.36
2019-03-17T12:34:04.032Z,9.22
2019-03-17T12:35:04.029Z,9.02
2019-03-17T12:36:03.983Z,8.97
2019-03-17T12:37:03.975Z,8.95
2019-03-17T12:38:03.964Z,8.88
2019-03-17T12:39:03.950Z,8.81
2019-03-17T12:40:03.938Z,8.71
2019-03-17T12:41:03.969Z,8.64
2019-03-17T12:42:03.918Z,8.58
2019-03-17T12:43:03.908Z,8.49
2019-03-17T12:44:03.899Z,8.49
2019-03-17T12:45:03.874Z,8.56
2019-03-17T12:46:03.866Z,8.55
2019-03-17T12:47:03.932Z,8.71
2019-03-17T12:48:03.858Z,8.97
2019-03-17T12:49:03.845Z,9.46
2019-03-17T12:50:03.822Z,9.41
2019-03-17T12:51:03.814Z,9.48
2019-03-17T12:52:03.802Z,9.32
2019-03-17T12:53:03.812Z,9.13
2019-03-17T12:54:03.797Z,9.14
2019-03-17T12:55:03.867Z,9.34
2019-03-17T12:56:03.759Z,9.73
2019-03-17T12:57:03.756Z,9.97
2019-03-17T12:58:03.773Z,10.09
2019-03-17T12:59:03.727Z,10.28
2019-03-17T13:00:03.727Z,10.44
2019-03-17T13:01:03.698Z,10.61
2019-03-17T13:02:03.684Z,10.71
2019-03-17T13:03:03.676Z,10.94
2019-03-17T13:04:03.707Z,11.10
2019-03-17T13:05:03.685Z,11.05
2019-03-17T13:06:03.699Z,10.90
2019-03-17T13:07:03.641Z,10.81
2019-03-17T13:08:03.623Z,11.00
2019-03-17T13:09:03.639Z,11.02
2019-03-17T13:10:15.070Z,10.90